createdAt,value
2018-12-15T00:01:35.809Z,95569.72
2018-12-15T00:04:06.179Z,95562.65
2018-12-15T00:06:36.652Z,95568.97
2018-12-15T00:09:08.387Z,95572.42
2018-12-15T00:11:39.131Z,95575.23
2018-12-15T00:14:09.692Z,95571.28
2018-12-15T00:16:40.522Z,95574.72
2018-12-15T00:19:11.427Z,95575.42
2018-12-15T00:21:42.594Z,95577.30
2018-12-15T00:24:13.263Z,95579.52
2018-12-15T00:26:43.689Z,95574.44
2018-12-15T00:29:15.423Z,95580.53
2018-12-15T00:31:46.377Z,95578.82
2018-12-15T00:34:16.906Z,95578.97
2018-12-15T00:36:47.826Z,95570.43
2018-12-15T00:39:18.966Z,95571.80
2018-12-15T00:41:49.645Z,95575.59
2018-12-15T00:44:20.455Z,95558.69
2018-12-15T00:46:51.474Z,95560.11
2018-12-15T00:49:22.999Z,95561.19
2018-12-15T00:51:53.520Z,95566.57
2018-12-15T00:54:24.481Z,95568.84
2018-12-15T00:56:55.125Z,95566.50
2018-12-15T00:59:25.748Z,95560.34
2018-12-15T01:01:56.389Z,95558.20
2018-12-15T01:04:27.334Z,95554.11
2018-12-15T01:06:58.029Z,95551.30
2018-12-15T01:09:30.916Z,95550.14
2018-12-15T01:12:01.236Z,95551.30
2018-12-15T01:14:32.368Z,95545.78
2018-12-15T01:17:02.762Z,95547.08
2018-12-15T01:19:33.573Z,95544.17
2018-12-15T01:22:04.372Z,95551.89
2018-12-15T01:24:35.575Z,95554.77
2018-12-15T01:27:06.599Z,95551.78
2018-12-15T01:29:38.509Z,95551.94
2018-12-15T01:32:09.022Z,95552.16
2018-12-15T01:34:39.486Z,95552.33
2018-12-15T01:37:10.209Z,95550.04
2018-12-15T01:39:41.774Z,95546.00
2018-12-15T01:42:13.020Z,95546.38
2018-12-15T01:44:43.992Z,95544.44
2018-12-15T01:47:14.850Z,95536.80
2018-12-15T01:49:46.490Z,95534.93
2018-12-15T01:52:17.087Z,95534.19
2018-12-15T01:54:47.419Z,95520.46
2018-12-15T01:57:17.882Z,95527.20
2018-12-15T01:59:48.992Z,95524.11
2018-12-15T02:02:19.513Z,95534.73
2018-12-15T02:04:49.923Z,95532.69
2018-12-15T02:07:21.087Z,95535.09
2018-12-15T02:09:55.593Z,95528.77
2018-12-15T02:12:26.428Z,95528.07
2018-12-15T02:14:57.322Z,95528.91
2018-12-15T02:17:33.458Z,95527.03
2018-12-15T02:20:04.836Z,95527.43
2018-12-15T02:22:35.955Z,95517.14
2018-12-15T02:25:06.714Z,95525.83
2018-12-15T02:27:37.316Z,95529.20
2018-12-15T02:30:08.888Z,95527.22
2018-12-15T02:32:39.697Z,95525.89
2018-12-15T02:35:10.635Z,95527.37
2018-12-15T02:37:41.567Z,95529.63
2018-12-15T02:40:13.056Z,95531.20
2018-12-15T02:42:43.759Z,95526.36
2018-12-15T02:45:14.790Z,95525.45
2018-12-15T02:47:45.825Z,95524.54
2018-12-15T02:50:17.127Z,95526.94
2018-12-15T02:52:47.921Z,95525.20
2018-12-15T02:55:18.490Z,95520.27
2018-12-15T02:57:49.238Z,95527.77
2018-12-15T03:00:20.575Z,95523.96
2018-12-15T03:02:51.488Z,95525.29
2018-12-15T03:05:21.800Z,95515.52
2018-12-15T03:07:52.049Z,95515.28
2018-12-15T03:10:23.113Z,95519.33
2018-12-15T03:12:53.324Z,95521.16
2018-12-15T03:15:24.046Z,95518.48
2018-12-15T03:17:55.230Z,95514.80
2018-12-15T03:20:26.282Z,95510.30
2018-12-15T03:22:56.889Z,95514.86
2018-12-15T03:25:28.050Z,95523.27
2018-12-15T03:27:59.166Z,95518.02
2018-12-15T03:30:30.238Z,95522.70
2018-12-15T03:33:00.909Z,95525.73
2018-12-15T03:35:31.558Z,95522.31
2018-12-15T03:38:02.651Z,95524.47
2018-12-15T03:40:33.522Z,95521.28
2018-12-15T03:43:03.996Z,95517.97
2018-12-15T03:45:34.971Z,95513.47
2018-12-15T03:48:05.888Z,95517.35
2018-12-15T03:50:37.846Z,95522.72
2018-12-15T03:53:08.298Z,95514.72
2018-12-15T03:55:38.943Z,95511.56
2018-12-15T03:58:09.536Z,95508.70
2018-12-15T04:00:40.492Z,95503.02
2018-12-15T04:03:10.727Z,95496.55
2018-12-15T04:05:41.401Z,95494.48
2018-12-15T04:08:11.699Z,95493.12
2018-12-15T04:10:43.404Z,95499.58
2018-12-15T04:13:14.134Z,95507.17
2018-12-15T04:15:44.653Z,95498.21
2018-12-15T04:18:15.064Z,95489.84
2018-12-15T04:20:46.367Z,95488.98
2018-12-15T04:23:17.253Z,95492.98
2018-12-15T04:25:48.060Z,95492.84
2018-12-15T04:28:18.688Z,95497.00
2018-12-15T04:30:49.842Z,95494.38
2018-12-15T04:33:20.511Z,95494.94
2018-12-15T04:35:51.034Z,95488.77
2018-12-15T04:38:21.530Z,95489.80
2018-12-15T04:40:52.805Z,95486.62
2018-12-15T04:43:23.599Z,95477.86
2018-12-15T04:45:54.440Z,95482.36
2018-12-15T04:48:26.046Z,95479.94
2018-12-15T04:50:57.262Z,95482.74
2018-12-15T04:53:28.690Z,95476.09
2018-12-15T04:55:59.289Z,95471.11
2018-12-15T04:58:29.780Z,95464.13
2018-12-15T05:01:01.564Z,95467.97
2018-12-15T05:03:32.328Z,95471.70
2018-12-15T05:06:03.160Z,95476.23
2018-12-15T05:08:33.556Z,95469.80
2018-12-15T05:11:05.791Z,95474.63
2018-12-15T05:13:36.444Z,95479.61
2018-12-15T05:16:07.474Z,95477.33
2018-12-15T05:18:38.432Z,95473.38
2018-12-15T05:21:10.143Z,95472.83
2018-12-15T05:23:41.318Z,95476.60
2018-12-15T05:26:11.718Z,95483.77
2018-12-15T05:28:42.131Z,95485.56
2018-12-15T05:31:13.790Z,95489.09
2018-12-15T05:33:44.004Z,95489.65
2018-12-15T05:36:15.269Z,95493.31
2018-12-15T05:38:45.650Z,95499.80
2018-12-15T05:41:17.356Z,95490.22
2018-12-15T05:43:48.010Z,95493.83
2018-12-15T05:46:19.037Z,95490.28
2018-12-15T05:48:49.788Z,95502.63
2018-12-15T05:51:21.136Z,95485.73
2018-12-15T05:53:51.526Z,95495.14
2018-12-15T05:56:22.316Z,95494.16
2018-12-15T05:58:52.905Z,95498.09
2018-12-15T06:01:23.586Z,95492.73
2018-12-15T06:03:53.931Z,95496.61
2018-12-15T06:06:24.723Z,95497.02
2018-12-15T06:08:55.093Z,95491.48
2018-12-15T06:11:26.054Z,95487.53
2018-12-15T06:13:56.138Z,95489.69
2018-12-15T06:16:26.583Z,95498.50
2018-12-15T06:18:57.287Z,95491.83
2018-12-15T06:21:28.810Z,95497.59
2018-12-15T06:23:59.545Z,95497.47
2018-12-15T06:26:29.854Z,95498.60
2018-12-15T06:28:59.984Z,95498.44
2018-12-15T06:31:30.374Z,95500.59
2018-12-15T06:34:01.041Z,95489.35
2018-12-15T06:36:31.535Z,95494.89
2018-12-15T06:39:01.951Z,95490.66
2018-12-15T06:41:32.893Z,95494.38
2018-12-15T06:44:03.156Z,95493.62
2018-12-15T06:46:33.581Z,95502.69
2018-12-15T06:49:03.918Z,95508.75
2018-12-15T06:51:37.444Z,95504.84
2018-12-15T06:54:07.910Z,95501.98
2018-12-15T06:56:38.220Z,95502.09
2018-12-15T06:59:08.884Z,95501.32
2018-12-15T07:01:40.406Z,95496.71
2018-12-15T07:04:10.952Z,95498.94
2018-12-15T07:06:42.125Z,95507.69
2018-12-15T07:09:12.830Z,95509.92
2018-12-15T07:11:44.150Z,95513.47
2018-12-15T07:14:14.490Z,95517.72
2018-12-15T07:16:44.982Z,95523.53
2018-12-15T07:19:16.062Z,95534.90
2018-12-15T07:21:47.637Z,95510.77
2018-12-15T07:24:17.864Z,95511.06
2018-12-15T07:26:48.258Z,95522.76
2018-12-15T07:29:18.575Z,95529.59
2018-12-15T07:31:49.497Z,95522.19
2018-12-15T07:34:19.955Z,95525.27
2018-12-15T07:36:50.656Z,95520.02
2018-12-15T07:39:21.191Z,95522.52
2018-12-15T07:41:51.844Z,95530.45
2018-12-15T07:44:22.372Z,95529.39
2018-12-15T07:46:52.694Z,95538.02
2018-12-15T07:49:22.924Z,95535.05
2018-12-15T07:51:53.564Z,95528.18
2018-12-15T07:54:23.816Z,95536.06
2018-12-15T07:56:54.105Z,95535.37
2018-12-15T07:59:24.531Z,95538.05
2018-12-15T08:01:56.169Z,95532.39
2018-12-15T08:04:26.181Z,95532.55
2018-12-15T08:06:56.492Z,95534.08
2018-12-15T08:09:26.958Z,95539.23
2018-12-15T08:12:02.446Z,95537.48
2018-12-15T08:14:32.899Z,95535.19
2018-12-15T08:17:03.409Z,95527.09
2018-12-15T08:19:34.092Z,95530.48
2018-12-15T08:22:04.781Z,95530.70
2018-12-15T08:24:35.172Z,95532.22
2018-12-15T08:27:05.544Z,95523.77
2018-12-15T08:29:35.953Z,95519.06
2018-12-15T08:32:06.672Z,95519.03
2018-12-15T08:34:37.139Z,95529.78
2018-12-15T08:37:07.544Z,95519.23
2018-12-15T08:39:37.634Z,95522.91
2018-12-15T08:42:08.428Z,95523.25
2018-12-15T08:44:38.700Z,95514.58
2018-12-15T08:47:09.015Z,95510.69
2018-12-15T08:49:39.510Z,95516.19
2018-12-15T08:52:10.912Z,95512.08
2018-12-15T08:54:41.443Z,95509.36
2018-12-15T08:57:16.015Z,95511.13
2018-12-15T08:59:46.373Z,95511.86
2018-12-15T09:02:17.175Z,95507.59
2018-12-15T09:04:47.706Z,95497.68
2018-12-15T09:07:17.852Z,95493.31
2018-12-15T09:09:48.503Z,95493.61
2018-12-15T09:12:21.088Z,95496.11
2018-12-15T09:14:52.354Z,95489.20
2018-12-15T09:17:23.080Z,95487.16
2018-12-15T09:19:53.585Z,95489.82
2018-12-15T09:22:24.190Z,95488.16
2018-12-15T09:24:55.645Z,95485.30
2018-12-15T09:27:26.972Z,95484.28
2018-12-15T09:29:57.218Z,95479.67
2018-12-15T09:32:28.745Z,95479.13
2018-12-15T09:34:59.779Z,95482.13
2018-12-15T09:37:30.687Z,95480.87
2018-12-15T09:40:01.324Z,95477.54
2018-12-15T09:42:32.900Z,95480.78
2018-12-15T09:45:03.796Z,95486.35
2018-12-15T09:47:34.235Z,95483.17
2018-12-15T09:50:04.962Z,95472.44
2018-12-15T09:52:35.700Z,95474.19
2018-12-15T09:55:06.558Z,95475.27
2018-12-15T09:57:37.408Z,95470.13
2018-12-15T10:00:08.040Z,95474.45
2018-12-15T10:02:39.756Z,95469.31
2018-12-15T10:05:10.489Z,95461.56
2018-12-15T10:07:41.979Z,95471.95
2018-12-15T10:10:12.885Z,95460.33
2018-12-15T10:12:44.343Z,95455.33
2018-12-15T10:15:14.715Z,95455.62
2018-12-15T10:17:45.076Z,95455.71
2018-12-15T10:20:15.535Z,95446.41
2018-12-15T10:22:47.397Z,95395.42
2018-12-15T10:25:17.667Z,95444.67
2018-12-15T10:27:47.987Z,95447.12
2018-12-15T10:30:23.253Z,95441.19
2018-12-15T10:32:55.223Z,95441.41
2018-12-15T10:35:26.144Z,95437.88
2018-12-15T10:37:56.583Z,95429.66
2018-12-15T10:40:26.788Z,95421.25
2018-12-15T10:42:57.668Z,95421.12
2018-12-15T10:45:28.046Z,95414.67
2018-12-15T10:47:58.598Z,95409.48
2018-12-15T10:50:29.158Z,95413.24
2018-12-15T10:53:00.228Z,95400.31
2018-12-15T10:55:37.412Z,95399.67
2018-12-15T10:58:07.633Z,95398.77
2018-12-15T11:01:45.271Z,95395.80
2018-12-15T11:04:15.888Z,95389.05
2018-12-15T11:06:46.276Z,95386.33
2018-12-15T11:09:16.936Z,95387.20
2018-12-15T11:11:47.155Z,95385.03
2018-12-15T11:14:21.465Z,95380.91
2018-12-15T11:16:51.960Z,95376.95
2018-12-15T11:19:22.207Z,95383.47
2018-12-15T11:21:52.703Z,95385.64
2018-12-15T11:24:23.259Z,95388.50
2018-12-15T11:26:54.001Z,95155.55
2018-12-15T11:29:24.141Z,95386.75
2018-12-15T11:31:54.440Z,95385.45
2018-12-15T11:34:26.004Z,95374.36
2018-12-15T11:36:56.421Z,95370.27
2018-12-15T11:39:27.156Z,95375.52
2018-12-15T11:41:57.812Z,95375.83
2018-12-15T11:44:28.927Z,95372.14
2018-12-15T11:46:59.463Z,95366.90
2018-12-15T11:49:30.195Z,95363.72
2018-12-15T11:52:00.615Z,95359.81
2018-12-15T11:54:31.588Z,95351.48
2018-12-15T11:57:02.359Z,95351.77
2018-12-15T11:59:33.232Z,95335.25
2018-12-15T12:02:03.983Z,95337.10
2018-12-15T12:04:34.903Z,95336.84
2018-12-15T12:07:05.516Z,95331.98
2018-12-15T12:09:36.013Z,95327.83
2018-12-15T12:12:06.795Z,95321.17
2018-12-15T12:14:37.344Z,95315.80
2018-12-15T12:17:07.650Z,95313.63
2018-12-15T12:19:38.069Z,95316.25
2018-12-15T12:22:08.579Z,95312.24
2018-12-15T12:24:39.004Z,95318.85
2018-12-15T12:27:09.596Z,95320.17
2018-12-15T12:29:40.180Z,95314.35
2018-12-15T12:32:10.612Z,95319.98
2018-12-15T12:34:41.731Z,95318.97
2018-12-15T12:37:12.259Z,95320.54
2018-12-15T12:39:42.951Z,95317.98
2018-12-15T12:42:13.343Z,95303.34
2018-12-15T12:44:44.122Z,95309.92
2018-12-15T12:47:14.262Z,95319.30
2018-12-15T12:49:44.834Z,95325.55
2018-12-15T12:52:15.354Z,95327.19
2018-12-15T12:54:46.783Z,95323.83
2018-12-15T12:57:17.479Z,95306.55
2018-12-15T12:59:47.779Z,95324.16
2018-12-15T13:02:18.056Z,95325.47
2018-12-15T13:04:48.618Z,95328.14
2018-12-15T13:07:19.014Z,95320.52
2018-12-15T13:09:49.439Z,95328.28
2018-12-15T13:12:20.111Z,95321.75
2018-12-15T13:14:50.980Z,95323.00
2018-12-15T13:17:21.412Z,95328.62
2018-12-15T13:19:52.058Z,95321.56
2018-12-15T13:22:22.626Z,95324.47
2018-12-15T13:24:53.342Z,95331.11
2018-12-15T13:27:23.959Z,95330.37
2018-12-15T13:29:54.917Z,95335.38
2018-12-15T13:32:25.549Z,95334.11
2018-12-15T13:34:56.272Z,95332.32
2018-12-15T13:37:26.907Z,95337.70
2018-12-15T13:39:57.462Z,95325.98
2018-12-15T13:42:28.072Z,95321.82
2018-12-15T13:44:59.975Z,95319.52
2018-12-15T13:47:30.419Z,95316.67
2018-12-15T13:50:01.180Z,95314.40
2018-12-15T13:52:31.840Z,95315.64
2018-12-15T13:55:02.774Z,95320.13
2018-12-15T13:57:33.324Z,95313.05
2018-12-15T14:00:04.270Z,95307.73
2018-12-15T14:02:34.529Z,95309.60
2018-12-15T14:05:05.167Z,95305.47
2018-12-15T14:07:35.434Z,95316.58
2018-12-15T14:10:06.001Z,95321.84
2018-12-15T14:12:36.578Z,95314.25
2018-12-15T14:15:08.421Z,95302.41
2018-12-15T14:17:38.892Z,95295.70
2018-12-15T14:20:09.580Z,95296.34
2018-12-15T14:22:40.196Z,95300.36
2018-12-15T14:25:10.854Z,95298.09
2018-12-15T14:27:41.578Z,95302.22
2018-12-15T14:30:12.279Z,95310.45
2018-12-15T14:32:42.852Z,95296.85
2018-12-15T14:35:13.460Z,95297.73
2018-12-15T14:37:43.987Z,95294.66
2018-12-15T14:40:14.410Z,95293.28
2018-12-15T14:42:44.984Z,95293.45
2018-12-15T14:45:16.086Z,95291.29
2018-12-15T14:47:46.409Z,95296.13
2018-12-15T14:50:23.171Z,95303.06
2018-12-15T14:52:48.898Z,95295.93
2018-12-15T14:55:19.743Z,95287.80
2018-12-15T14:57:50.399Z,95290.78
2018-12-15T15:00:20.741Z,95284.32
2018-12-15T15:02:51.384Z,95287.53
2018-12-15T15:05:22.564Z,95285.41
2018-12-15T15:07:52.996Z,95284.80
2018-12-15T15:10:23.389Z,95274.41
2018-12-15T15:12:53.692Z,95279.59
2018-12-15T15:15:24.667Z,95289.76
2018-12-15T15:17:55.096Z,95284.72
2018-12-15T15:20:29.745Z,95268.77
2018-12-15T15:22:58.110Z,95269.19
2018-12-15T15:25:28.647Z,95272.88
2018-12-15T15:27:59.308Z,95267.32
2018-12-15T15:30:29.911Z,95271.39
2018-12-15T15:33:00.175Z,95263.58
2018-12-15T15:35:31.683Z,95267.47
2018-12-15T15:38:33.648Z,95273.52
2018-12-15T15:41:04.094Z,95277.49
2018-12-15T15:43:34.512Z,95278.36
2018-12-15T15:46:04.975Z,95276.25
2018-12-15T15:48:35.315Z,95269.56
2018-12-15T15:51:06.101Z,95273.77
2018-12-15T15:53:37.026Z,95265.55
2018-12-15T15:56:07.769Z,95254.40
2018-12-15T15:58:37.840Z,95263.86
2018-12-15T16:01:07.550Z,95265.41
2018-12-15T16:03:38.022Z,95267.25
2018-12-15T16:06:07.886Z,95278.04
2018-12-15T16:08:37.698Z,95270.59
2018-12-15T16:11:07.439Z,95270.61
2018-12-15T16:13:37.111Z,95273.44
2018-12-15T16:16:16.503Z,95272.09
2018-12-15T16:18:46.292Z,95260.17
2018-12-15T16:21:15.951Z,95252.65
2018-12-15T16:23:46.278Z,95261.20
2018-12-15T16:26:15.979Z,95267.63
2018-12-15T16:28:45.753Z,95272.88
2018-12-15T16:31:15.339Z,95275.26
2018-12-15T16:33:45.083Z,95269.75
2018-12-15T16:36:14.844Z,95271.36
2018-12-15T16:38:44.547Z,95272.55
2018-12-15T16:41:14.239Z,95273.66
2018-12-15T16:43:43.912Z,95294.45
2018-12-15T16:46:13.563Z,95272.78
2018-12-15T16:48:43.382Z,95268.47
2018-12-15T16:51:13.114Z,95267.59
2018-12-15T16:53:42.889Z,95277.05
2018-12-15T16:56:12.564Z,95269.13
2018-12-15T16:58:42.835Z,95266.31
2018-12-15T17:01:12.532Z,95263.43
2018-12-15T17:03:42.201Z,95262.19
2018-12-15T17:06:11.788Z,95260.25
2018-12-15T17:08:41.423Z,95257.00
2018-12-15T17:11:11.101Z,95257.25
2018-12-15T17:13:40.759Z,95254.11
2018-12-15T17:16:10.416Z,95269.23
2018-12-15T17:18:40.093Z,95264.48
2018-12-15T17:21:09.661Z,95271.25
2018-12-15T17:23:39.356Z,95275.81
2018-12-15T17:26:08.923Z,95266.97
2018-12-15T17:28:38.477Z,95260.58
2018-12-15T17:31:08.124Z,95262.70
2018-12-15T17:33:37.799Z,95268.09
2018-12-15T17:36:07.489Z,95268.72
2018-12-15T17:38:37.139Z,95268.39
2018-12-15T17:41:06.801Z,95268.98
2018-12-15T17:43:36.447Z,95262.88
2018-12-15T17:46:06.098Z,95265.25
2018-12-15T17:48:36.015Z,95258.61
2018-12-15T17:51:05.685Z,95265.42
2018-12-15T17:53:35.336Z,95266.39
2018-12-15T17:56:05.039Z,95260.36
2018-12-15T17:58:34.625Z,95256.47
2018-12-15T18:01:04.872Z,95265.36
2018-12-15T18:03:34.705Z,95252.31
2018-12-15T18:06:04.443Z,95262.83
2018-12-15T18:08:34.174Z,95255.19
2018-12-15T18:11:03.936Z,95247.70
2018-12-15T18:13:33.768Z,95255.95
2018-12-15T18:16:03.439Z,95250.56
2018-12-15T18:18:33.110Z,95256.91
2018-12-15T18:21:02.928Z,95246.70
2018-12-15T18:23:32.700Z,95243.19
2018-12-15T18:26:02.356Z,95242.53
2018-12-15T18:28:32.019Z,95249.89
2018-12-15T18:31:01.553Z,95255.48
2018-12-15T18:33:36.909Z,95245.93
2018-12-15T18:36:03.124Z,95247.93
2018-12-15T18:38:33.039Z,95236.10
2018-12-15T18:41:02.693Z,95234.94
2018-12-15T18:43:32.779Z,95231.95
2018-12-15T18:46:02.511Z,95229.42
2018-12-15T18:48:32.226Z,95236.92
2018-12-15T18:51:01.989Z,95239.73
2018-12-15T18:53:31.724Z,95241.55
2018-12-15T18:56:01.439Z,95243.83
2018-12-15T18:58:31.143Z,95242.52
2018-12-15T19:01:00.914Z,95256.80
2018-12-15T19:03:30.858Z,95240.24
2018-12-15T19:06:00.648Z,95230.28
2018-12-15T19:08:30.324Z,95232.44
2018-12-15T19:11:00.082Z,95239.09
2018-12-15T19:13:29.734Z,95231.16
2018-12-15T19:15:59.408Z,95232.38
2018-12-15T19:18:29.182Z,95236.43
2018-12-15T19:20:58.925Z,95235.63
2018-12-15T19:23:28.595Z,95238.55
2018-12-15T19:25:58.275Z,95232.39
2018-12-15T19:28:28.587Z,95228.77
2018-12-15T19:30:59.143Z,95238.25
2018-12-15T19:33:29.546Z,95235.19
2018-12-15T19:36:00.202Z,95241.72
2018-12-15T19:38:30.738Z,95250.41
2018-12-15T19:41:01.488Z,95245.28
2018-12-15T19:43:32.217Z,95256.64
2018-12-15T19:46:02.874Z,95247.39
2018-12-15T19:48:33.582Z,95245.36
2018-12-15T19:51:04.119Z,95245.30
2018-12-15T19:53:34.711Z,95245.30
2018-12-15T19:56:05.070Z,95248.87
2018-12-15T19:58:35.589Z,95240.05
2018-12-15T20:01:06.201Z,95227.67
2018-12-15T20:03:37.069Z,95239.28
2018-12-15T20:06:07.880Z,95238.76
2018-12-15T20:08:38.668Z,95227.91
2018-12-15T20:11:09.180Z,95228.50
2018-12-15T20:13:40.288Z,95238.18
2018-12-15T20:16:11.105Z,95233.41
2018-12-15T20:18:41.665Z,95220.36
2018-12-15T20:21:12.275Z,95225.29
2018-12-15T20:23:43.120Z,95234.78
2018-12-15T20:26:13.465Z,95225.12
2018-12-15T20:28:43.845Z,95220.53
2018-12-15T20:31:14.465Z,95225.84
2018-12-15T20:33:46.247Z,95220.66
2018-12-15T20:36:16.750Z,95217.48
2018-12-15T20:38:47.064Z,95213.42
2018-12-15T20:41:17.485Z,95218.66
2018-12-15T20:43:48.415Z,95220.06
2018-12-15T20:46:19.004Z,95217.38
2018-12-15T20:48:48.690Z,95210.95
2018-12-15T20:51:19.236Z,95209.45
2018-12-15T20:53:50.120Z,95213.84
2018-12-15T20:56:20.564Z,95208.97
2018-12-15T20:58:51.184Z,95199.59
2018-12-15T21:01:21.484Z,95203.20
2018-12-15T21:03:51.926Z,95205.14
2018-12-15T21:06:21.987Z,95196.99
2018-12-15T21:08:52.831Z,95193.31
2018-12-15T21:11:24.283Z,95203.02
2018-12-15T21:13:54.995Z,95205.94
2018-12-15T21:16:25.366Z,95195.27
2018-12-15T21:18:55.714Z,95184.74
2018-12-15T21:21:26.319Z,95190.36
2018-12-15T21:23:57.847Z,95189.06
2018-12-15T21:26:28.449Z,95196.41
2018-12-15T21:28:59.215Z,94929.33
2018-12-15T21:31:29.718Z,95178.99
2018-12-15T21:34:07.552Z,95170.09
2018-12-15T21:36:33.364Z,95173.98
2018-12-15T21:39:04.081Z,95178.81
2018-12-15T21:41:34.367Z,95168.37
2018-12-15T21:44:05.760Z,95166.47
2018-12-15T21:46:36.102Z,95163.55
2018-12-15T21:49:06.676Z,95163.98
2018-12-15T21:51:37.064Z,95168.80
2018-12-15T21:54:07.684Z,95176.63
2018-12-15T21:56:38.423Z,95186.48
2018-12-15T21:59:08.479Z,95179.90
2018-12-15T22:01:39.231Z,95179.72
2018-12-15T22:04:10.656Z,95179.46
2018-12-15T22:06:41.404Z,95183.27
2018-12-15T22:09:11.952Z,95181.59
2018-12-15T22:11:42.589Z,95172.42
2018-12-15T22:14:13.326Z,95172.69
2018-12-15T22:16:43.859Z,95164.86
2018-12-15T22:19:14.593Z,95162.29
2018-12-15T22:21:44.871Z,95158.19
2018-12-15T22:24:15.755Z,95149.75
2018-12-15T22:26:46.176Z,95145.48
2018-12-15T22:29:16.643Z,95152.48
2018-12-15T22:31:46.907Z,95133.07
2018-12-15T22:34:17.787Z,95124.98
2018-12-15T22:36:48.376Z,95132.20
2018-12-15T22:39:18.921Z,95129.28
2018-12-15T22:41:49.754Z,95135.19
2018-12-15T22:44:20.485Z,95132.69
2018-12-15T22:46:50.994Z,95133.66
2018-12-15T22:49:21.440Z,95127.85
2018-12-15T22:51:52.096Z,95133.58
2018-12-15T22:54:23.245Z,95141.05
2018-12-15T22:56:53.843Z,95125.19
2018-12-15T22:59:24.245Z,95127.08
2018-12-15T23:01:54.895Z,95128.87
2018-12-15T23:04:25.842Z,95123.26
2018-12-15T23:06:55.911Z,95121.42
2018-12-15T23:09:26.401Z,95121.81
2018-12-15T23:11:57.147Z,95122.68
2018-12-15T23:14:27.995Z,95127.02
2018-12-15T23:16:58.219Z,95130.91
2018-12-15T23:19:28.526Z,95131.84
2018-12-15T23:21:58.613Z,95135.08
2018-12-15T23:24:29.435Z,95149.95
2018-12-15T23:26:59.774Z,95142.73
2018-12-15T23:29:29.961Z,95150.73
2018-12-15T23:32:00.337Z,95163.09
2018-12-15T23:34:30.787Z,95147.52
2018-12-15T23:37:01.279Z,95134.68
2018-12-15T23:39:31.728Z,95145.27
2018-12-15T23:42:02.248Z,95149.42
2018-12-15T23:44:33.527Z,95145.06
2018-12-15T23:47:03.945Z,95148.94
2018-12-15T23:49:34.553Z,95141.66
2018-12-15T23:52:04.964Z,95136.38
2018-12-15T23:54:36.063Z,95137.41
2018-12-15T23:57:06.691Z,95135.57
2018-12-15T23:59:37.118Z,95136.49
